»·PEaware :: N127CB KBLH-KPRC

N127CB :: KBLH-KPRC

FLIGHT INFORMATION

Flight Status: Arrived
Operator: Privately registered:
United States
More flights under this callsign
Pilot: Chris B. (15698)
Aircraft: Unknown
(HA4T)
More flights by this aircraft type
Origin: KBLH Blythe
United States
Destination: KPRC Love
United States
More flights between these airports :: More routes between these airports
Route: PKE V135 EED V12 DRK
File this flight plan on PilotEdge
Remarks:
Altitude:
(Current/Filed)
19,000ft
Speed:
(Current/Filed)
400kts
Departed: 09-Sep-17 03:25 PM
Arrived: 09-Sep-17 04:01 PM
Distance/Time
Traveled:
129nm/0:36
Distance/Time
To Go:
Arrived

Flight Plot

Page will automatically refresh every two minutes.

Flight plan parsing failed; only flown route is shown


Map Options




Map Legend


Flown Route
Filed Route
Departure Airport
Arrival Airport
Navaid (VOR, NDB)
Fix

Horizontal Profiles

Position Reports

Time Latitude Longitude Heading Altitude Ground
Speed
09-Sep-17 15:05 33.614059 -114.713167 90 403ft 0kts
09-Sep-17 15:06 33.614059 -114.713167 90 403ft 0kts
09-Sep-17 15:07 33.614059 -114.713167 90 403ft 0kts
09-Sep-17 15:08 33.614059 -114.713167 90 403ft 0kts
09-Sep-17 15:09 33.614059 -114.713167 90 403ft 0kts
09-Sep-17 15:10 33.614059 -114.713167 90 403ft 0kts
09-Sep-17 15:11 33.614059 -114.713167 90 403ft 0kts
09-Sep-17 15:12 33.614059 -114.713167 90 403ft 0kts
09-Sep-17 15:13 33.614059 -114.713167 90 403ft 0kts
09-Sep-17 15:14 33.614059 -114.713167 90 403ft 0kts
09-Sep-17 15:15 33.614059 -114.713167 90 403ft 0kts
09-Sep-17 15:16 33.614059 -114.713167 90 403ft 0kts
09-Sep-17 15:17 33.614059 -114.713167 90 403ft 0kts
09-Sep-17 15:18 33.614059 -114.713167 90 403ft 0kts
09-Sep-17 15:19 33.614059 -114.713167 90 403ft 0kts
09-Sep-17 15:20 33.614059 -114.713167 90 403ft 0kts
09-Sep-17 15:21 33.614059 -114.713167 90 403ft 0kts
09-Sep-17 15:22 33.614059 -114.713167 90 403ft 0kts
09-Sep-17 15:23 33.614122 -114.713036 12 403ft 3kts
09-Sep-17 15:24 33.615153 -114.717008 269 403ft 20kts
09-Sep-17 15:25 33.615177 -114.726963 271 403ft 16kts
09-Sep-17 15:26 33.615649 -114.727710 356 403ft 0kts
09-Sep-17 15:27 33.615649 -114.727710 356 403ft 0kts
09-Sep-17 15:28 33.616542 -114.727455 59 403ft 13kts
09-Sep-17 15:29 33.616545 -114.712022 90 856ft 164kts
09-Sep-17 15:30 33.658079 -114.664396 8 4011ft 241kts
09-Sep-17 15:31 33.708200 -114.683224 332 5824ft 196kts
09-Sep-17 15:32 33.758753 -114.702031 354 5996ft 198kts
09-Sep-17 15:33 33.813640 -114.702152 0 7730ft 249kts
09-Sep-17 15:34 33.883203 -114.697819 1 10410ft 267kts
09-Sep-17 15:35 33.958071 -114.692491 2 13083ft 283kts
09-Sep-17 15:36 34.037347 -114.686698 2 15781ft 296kts
09-Sep-17 15:37 34.118978 -114.676574 13 17591ft 307kts
09-Sep-17 15:38 34.200778 -114.651316 13 17884ft 308kts
09-Sep-17 15:39 34.284359 -114.625276 13 18255ft 378kts
09-Sep-17 15:40 34.389662 -114.592362 13 19007ft 418kts
09-Sep-17 15:41 34.494009 -114.559682 13 19020ft 418kts
09-Sep-17 15:42 34.599026 -114.526700 13 19019ft 418kts
09-Sep-17 15:43 34.699589 -114.475439 39 19036ft 418kts
09-Sep-17 15:44 34.753872 -114.384428 66 19013ft 413kts
09-Sep-17 15:45 34.764025 -114.256942 101 19015ft 402kts
09-Sep-17 15:46 34.757225 -114.122407 94 19022ft 404kts
09-Sep-17 15:47 34.753548 -113.988598 94 19042ft 404kts
09-Sep-17 15:48 34.750012 -113.862842 94 19108ft 404kts
09-Sep-17 15:49 34.746937 -113.756824 94 19170ft 404kts
09-Sep-17 15:50 34.743423 -113.639624 94 19180ft 405kts
09-Sep-17 15:51 34.739916 -113.526236 94 19181ft 404kts
09-Sep-17 15:52 34.736742 -113.426341 94 19181ft 404kts
09-Sep-17 15:53 34.733678 -113.332285 95 19180ft 404kts
09-Sep-17 15:54 34.730288 -113.230629 95 19185ft 405kts
09-Sep-17 15:55 34.726886 -113.130991 95 18883ft 394kts
09-Sep-17 15:56 34.722909 -113.017960 95 16331ft 336kts
09-Sep-17 15:57 34.719110 -112.914226 93 15117ft 325kts
09-Sep-17 15:58 34.715518 -112.816587 92 12327ft 286kts
09-Sep-17 15:59 34.712236 -112.728529 92 10229ft 255kts
09-Sep-17 16:00 34.708960 -112.643162 92 10225ft 258kts
09-Sep-17 16:01 34.705582 -112.556706 92 10224ft 258kts
09-Sep-17 16:02 34.698061 -112.470050 93 8353ft 280kts
09-Sep-17 16:03 34.689690 -112.395093 105 6566ft 163kts
09-Sep-17 16:04 34.667894 -112.392046 269 5595ft 134kts
09-Sep-17 16:05 34.651335 -112.422852 220 5047ft 1kts
09-Sep-17 16:06 34.649762 -112.425682 268 5047ft 0kts
09-Sep-17 16:07 34.649762 -112.425682 268 5047ft 0kts
09-Sep-17 16:08 34.649762 -112.425682 268 5047ft 0kts
09-Sep-17 16:09 34.649762 -112.425682 268 5047ft 0kts
09-Sep-17 16:10 34.647346 -112.428528 202 5047ft 11kts
09-Sep-17 16:11 34.646267 -112.427352 123 5047ft 16kts
09-Sep-17 16:12 34.647190 -112.424166 40 5047ft 0kts
09-Sep-17 16:13 34.647190 -112.424166 40 5047ft 0kts
09-Sep-17 16:14 34.647190 -112.424166 40 5047ft 0kts
09-Sep-17 16:15 34.647190 -112.424166 40 5047ft 0kts
09-Sep-17 16:16 34.647190 -112.424166 40 5047ft 0kts
09-Sep-17 16:17 34.647190 -112.424166 40 5047ft 0kts
09-Sep-17 16:18 34.647190 -112.424166 40 5047ft 0kts
09-Sep-17 16:19 34.647190 -112.424166 40 5047ft 0kts

Navigation Log

Ident Type
Flight plan parsing failed, navigation log unavailable